Main page
METAR-TAF:

METAR-TAF

Airports :

Marsa Alam International Airport

Marsa Alam, Egypt

latitude: 25-33-25N, longitude: 34-35-01E, elevation: 77 m

Current weather observation

The report was made 14 hours and 43 minutes ago, at 15:00 UTC
Wind 16 kt from the North
Temperature 30°C
Humidity 38%
Pressure 1010 hPa
Visibility 10 km or more
no clouds below 1500 m and no cumulonimbus

METAR: HEMA 251500Z 01016KT CAVOK 30/14 Q1010 NOSIG

Time: 07:43 (05:43 UTC)

Forecast

The report was made 43 minutes ago, at 05:00 UTC
Forecast valid from 26 at 06 UTC to 27 at 12 UTC
Wind 12 kt from the North/Northwest with gusts up to 22 kt
Visibility 10 km or more
no clouds below 1500 m and no cumulonimbus

TAF: HEMA 260500Z 2606/2712 34012G22KT CAVOK

Weather observations and forecasts of more than 4000 airports (METAR and TAF reports).

The available stations are represented by yellow and red dots on the map.

Hover mouse over dot to see the name of the station.

Then click to see weather observations and forecasts.

To change the map : click on the green buttons with a black cross to zoom in, on the green button with a dash to zoom out, or on the green arrows for adjacent maps.


METAR-TAF: